sensor_id;sensor_type;location;lat;lon;timestamp;pressure;altitude;pressure_sealevel;temperature;humidity
15750;BME280;7976;52.526;13.326;2023-04-08T00:01:43;101635.97;;;6.66;100.00
15750;BME280;7976;52.526;13.326;2023-04-08T00:04:10;101635.97;;;6.63;100.00
15750;BME280;7976;52.526;13.326;2023-04-08T00:06:39;101635.13;;;6.64;100.00
15750;BME280;7976;52.526;13.326;2023-04-08T00:09:06;101631.63;;;6.65;100.00
15750;BME280;7976;52.526;13.326;2023-04-08T00:11:32;101644.59;;;6.68;100.00
15750;BME280;7976;52.526;13.326;2023-04-08T00:14:02;101645.50;;;6.66;100.00
15750;BME280;7976;52.526;13.326;2023-04-08T00:16:29;101640.34;;;6.60;100.00
15750;BME280;7976;52.526;13.326;2023-04-08T00:18:57;101645.53;;;6.61;100.00
15750;BME280;7976;52.526;13.326;2023-04-08T00:21:23;101637.75;;;6.60;100.00
15750;BME280;7976;52.526;13.326;2023-04-08T00:23:51;101649.00;;;6.60;100.00
15750;BME280;7976;52.526;13.326;2023-04-08T00:26:18;101644.69;;;6.59;100.00
15750;BME280;7976;52.526;13.326;2023-04-08T00:28:45;101642.09;;;6.58;100.00
15750;BME280;7976;52.526;13.326;2023-04-08T00:31:12;101642.94;;;6.58;100.00
15750;BME280;7976;52.526;13.326;2023-04-08T00:33:39;101637.72;;;6.63;100.00
15750;BME280;7976;52.526;13.326;2023-04-08T00:36:07;101641.19;;;6.65;100.00
15750;BME280;7976;52.526;13.326;2023-04-08T00:38:34;101636.84;;;6.65;100.00
15750;BME280;7976;52.526;13.326;2023-04-08T00:41:00;101642.06;;;6.62;100.00
15750;BME280;7976;52.526;13.326;2023-04-08T00:43:27;101651.59;;;6.60;100.00
15750;BME280;7976;52.526;13.326;2023-04-08T00:45:54;101642.94;;;6.61;100.00
15750;BME280;7976;52.526;13.326;2023-04-08T00:48:21;101639.44;;;6.65;100.00
15750;BME280;7976;52.526;13.326;2023-04-08T00:50:48;101639.41;;;6.68;100.00
15750;BME280;7976;52.526;13.326;2023-04-08T00:53:18;101640.34;;;6.63;100.00
15750;BME280;7976;52.526;13.326;2023-04-08T00:55:45;101642.09;;;6.59;100.00
15750;BME280;7976;52.526;13.326;2023-04-08T00:58:13;101637.75;;;6.58;100.00
15750;BME280;7976;52.526;13.326;2023-04-08T01:00:47;101636.00;;;6.60;100.00
15750;BME280;7976;52.526;13.326;2023-04-08T01:03:26;101632.53;;;6.61;100.00
15750;BME280;7976;52.526;13.326;2023-04-08T01:06:04;101632.53;;;6.64;100.00
15750;BME280;7976;52.526;13.326;2023-04-08T01:08:37;101636.00;;;6.65;100.00
15750;BME280;7976;52.526;13.326;2023-04-08T01:11:10;101635.97;;;6.66;100.00
15750;BME280;7976;52.526;13.326;2023-04-08T01:13:41;101644.59;;;6.68;100.00
15750;BME280;7976;52.526;13.326;2023-04-08T01:16:12;101649.81;;;6.68;100.00
15750;BME280;7976;52.526;13.326;2023-04-08T01:18:42;101644.63;;;6.67;100.00
15750;BME280;7976;52.526;13.326;2023-04-08T01:21:11;101649.81;;;6.67;100.00
15750;BME280;7976;52.526;13.326;2023-04-08T01:23:52;101648.97;;;6.68;100.00
15750;BME280;7976;52.526;13.326;2023-04-08T01:26:24;101653.28;;;6.69;100.00
15750;BME280;7976;52.526;13.326;2023-04-08T01:28:54;101649.81;;;6.68;100.00
15750;BME280;7976;52.526;13.326;2023-04-08T01:31:25;101655.03;;;6.67;100.00
15750;BME280;7976;52.526;13.326;2023-04-08T01:33:54;101656.78;;;6.66;100.00
15750;BME280;7976;52.526;13.326;2023-04-08T01:36:23;101664.56;;;6.68;100.00
15750;BME280;7976;52.526;13.326;2023-04-08T01:38:51;101665.44;;;6.65;100.00
15750;BME280;7976;52.526;13.326;2023-04-08T01:41:19;101658.53;;;6.64;100.00
15750;BME280;7976;52.526;13.326;2023-04-08T01:43:49;101658.50;;;6.67;100.00
15750;BME280;7976;52.526;13.326;2023-04-08T01:46:19;101654.16;;;6.69;100.00
15750;BME280;7976;52.526;13.326;2023-04-08T01:48:47;101659.38;;;6.66;100.00
15750;BME280;7976;52.526;13.326;2023-04-08T01:51:16;101659.38;;;6.66;100.00
15750;BME280;7976;52.526;13.326;2023-04-08T01:53:43;101658.50;;;6.67;100.00
15750;BME280;7976;52.526;13.326;2023-04-08T01:56:11;101672.34;;;6.71;100.00
15750;BME280;7976;52.526;13.326;2023-04-08T01:58:45;101669.72;;;6.74;100.00
15750;BME280;7976;52.526;13.326;2023-04-08T02:01:20;101668.88;;;6.75;100.00
15750;BME280;7976;52.526;13.326;2023-04-08T02:03:51;101661.91;;;6.75;100.00
15750;BME280;7976;52.526;13.326;2023-04-08T02:06:23;101660.22;;;6.71;100.00
15750;BME280;7976;52.526;13.326;2023-04-08T02:08:51;101654.16;;;6.69;100.00
15750;BME280;7976;52.526;13.326;2023-04-08T02:11:20;101656.75;;;6.69;100.00
15750;BME280;7976;52.526;13.326;2023-04-08T02:13:47;101654.13;;;6.71;100.00
15750;BME280;7976;52.526;13.326;2023-04-08T02:16:22;101660.19;;;6.74;100.00
15750;BME280;7976;52.526;13.326;2023-04-08T02:18:55;101668.84;;;6.76;100.00
15750;BME280;7976;52.526;13.326;2023-04-08T02:21:31;101672.31;;;6.75;100.00
15750;BME280;7976;52.526;13.326;2023-04-08T02:24:04;101680.13;;;6.74;100.00
15750;BME280;7976;52.526;13.326;2023-04-08T02:26:33;101677.56;;;6.69;100.00
15750;BME280;7976;52.526;13.326;2023-04-08T02:29:04;101686.22;;;6.67;100.00
15750;BME280;7976;52.526;13.326;2023-04-08T02:31:33;101681.88;;;6.69;100.00
15750;BME280;7976;52.526;13.326;2023-04-08T02:34:01;101686.22;;;6.71;100.00
15750;BME280;7976;52.526;13.326;2023-04-08T02:36:31;101681.84;;;6.73;100.00
15750;BME280;7976;52.526;13.326;2023-04-08T02:39:02;101687.91;;;6.74;100.00
15750;BME280;7976;52.526;13.326;2023-04-08T02:41:29;101680.13;;;6.74;100.00
15750;BME280;7976;52.526;13.326;2023-04-08T02:43:57;101682.69;;;6.77;100.00
15750;BME280;7976;52.526;13.326;2023-04-08T02:46:24;101681.84;;;6.78;100.00
15750;BME280;7976;52.526;13.326;2023-04-08T02:48:52;101688.75;;;6.80;100.00
15750;BME280;7976;52.526;13.326;2023-04-08T02:51:19;101685.28;;;6.83;100.00
15750;BME280;7976;52.526;13.326;2023-04-08T02:53:46;101688.72;;;6.83;100.00
15750;BME280;7976;52.526;13.326;2023-04-08T02:56:13;101693.09;;;6.77;100.00
15750;BME280;7976;52.526;13.326;2023-04-08T02:58:40;101692.25;;;6.76;100.00
15750;BME280;7976;52.526;13.326;2023-04-08T03:01:07;101690.50;;;6.77;100.00
15750;BME280;7976;52.526;13.326;2023-04-08T03:03:34;101700.91;;;6.74;100.00
15750;BME280;7976;52.526;13.326;2023-04-08T03:06:03;101694.88;;;6.70;100.00
15750;BME280;7976;52.526;13.326;2023-04-08T03:08:30;101698.34;;;6.69;100.00
15750;BME280;7976;52.526;13.326;2023-04-08T03:10:57;101701.81;;;6.71;100.00
15750;BME280;7976;52.526;13.326;2023-04-08T03:13:24;101705.25;;;6.76;100.00
15750;BME280;7976;52.526;13.326;2023-04-08T03:15:51;101702.63;;;6.79;100.00
15750;BME280;7976;52.526;13.326;2023-04-08T03:18:17;101710.41;;;6.82;100.00
15750;BME280;7976;52.526;13.326;2023-04-08T03:20:44;101704.34;;;6.82;100.00
15750;BME280;7976;52.526;13.326;2023-04-08T03:23:12;101713.88;;;6.84;100.00
15750;BME280;7976;52.526;13.326;2023-04-08T03:25:39;101713.88;;;6.84;100.00
15750;BME280;7976;52.526;13.326;2023-04-08T03:28:07;101713.84;;;6.87;100.00
15750;BME280;7976;52.526;13.326;2023-04-08T03:30:34;101722.50;;;6.89;100.00
15750;BME280;7976;52.526;13.326;2023-04-08T03:33:01;101716.44;;;6.89;100.00
15750;BME280;7976;52.526;13.326;2023-04-08T03:35:29;101712.13;;;6.86;100.00
15750;BME280;7976;52.526;13.326;2023-04-08T03:37:57;101720.75;;;6.88;100.00
15750;BME280;7976;52.526;13.326;2023-04-08T03:40:25;101724.22;;;6.90;100.00
15750;BME280;7976;52.526;13.326;2023-04-08T03:42:52;101717.31;;;6.89;100.00
15750;BME280;7976;52.526;13.326;2023-04-08T03:45:19;101718.19;;;6.90;100.00
15750;BME280;7976;52.526;13.326;2023-04-08T03:47:45;101725.97;;;6.91;100.00
15750;BME280;7976;52.526;13.326;2023-04-08T03:50:12;101731.19;;;6.91;100.00
15750;BME280;7976;52.526;13.326;2023-04-08T03:52:39;101724.25;;;6.89;100.00
15750;BME280;7976;52.526;13.326;2023-04-08T03:55:08;101730.34;;;6.83;100.00
15750;BME280;7976;52.526;13.326;2023-04-08T03:57:36;101724.28;;;6.84;100.00
15750;BME280;7976;52.526;13.326;2023-04-08T04:00:03;101732.06;;;6.84;100.00
15750;BME280;7976;52.526;13.326;2023-04-08T04:02:37;101727.75;;;6.80;100.00
15750;BME280;7976;52.526;13.326;2023-04-08T04:05:05;101732.97;;;6.80;100.00
15750;BME280;7976;52.526;13.326;2023-04-08T04:07:32;101732.97;;;6.80;100.00
15750;BME280;7976;52.526;13.326;2023-04-08T04:09:58;101732.97;;;6.80;100.00
15750;BME280;7976;52.526;13.326;2023-04-08T04:12:25;101737.31;;;6.81;100.00
15750;BME280;7976;52.526;13.326;2023-04-08T04:14:53;101740.72;;;6.83;100.00
15750;BME280;7976;52.526;13.326;2023-04-08T04:17:20;101753.75;;;6.86;100.00
15750;BME280;7976;52.526;13.326;2023-04-08T04:19:47;101752.84;;;6.90;100.00
15750;BME280;7976;52.526;13.326;2023-04-08T04:22:13;101749.41;;;6.90;100.00
15750;BME280;7976;52.526;13.326;2023-04-08T04:24:40;101752.84;;;6.90;100.00
15750;BME280;7976;52.526;13.326;2023-04-08T04:27:07;101755.44;;;6.89;100.00
15750;BME280;7976;52.526;13.326;2023-04-08T04:29:34;101757.19;;;6.88;100.00
15750;BME280;7976;52.526;13.326;2023-04-08T04:32:02;101760.66;;;6.90;100.00
15750;BME280;7976;52.526;13.326;2023-04-08T04:34:29;101758.91;;;6.92;100.00
15750;BME280;7976;52.526;13.326;2023-04-08T04:36:56;101766.69;;;6.95;100.00
15750;BME280;7976;52.526;13.326;2023-04-08T04:39:22;101760.63;;;6.96;100.00
15750;BME280;7976;52.526;13.326;2023-04-08T04:41:49;101764.94;;;6.97;100.00
15750;BME280;7976;52.526;13.326;2023-04-08T04:44:16;101765.81;;;6.99;100.00
15750;BME280;7976;52.526;13.326;2023-04-08T04:46:44;101768.41;;;6.98;100.00
15750;BME280;7976;52.526;13.326;2023-04-08T04:49:12;101771.88;;;6.98;100.00
15750;BME280;7976;52.526;13.326;2023-04-08T04:51:39;101774.47;;;6.98;100.00
15750;BME280;7976;52.526;13.326;2023-04-08T04:54:06;101778.81;;;7.01;100.00
15750;BME280;7976;52.526;13.326;2023-04-08T04:56:32;101783.13;;;7.02;100.00
15750;BME280;7976;52.526;13.326;2023-04-08T04:59:00;101788.31;;;7.03;100.00
15750;BME280;7976;52.526;13.326;2023-04-08T05:01:26;101784.88;;;7.01;100.00
15750;BME280;7976;52.526;13.326;2023-04-08T05:03:54;101793.53;;;7.00;100.00
15750;BME280;7976;52.526;13.326;2023-04-08T05:06:23;101798.75;;;6.99;100.00
15750;BME280;7976;52.526;13.326;2023-04-08T05:08:50;101795.28;;;6.97;100.00
15750;BME280;7976;52.526;13.326;2023-04-08T05:11:18;101798.75;;;6.97;100.00
15750;BME280;7976;52.526;13.326;2023-04-08T05:13:46;101804.84;;;6.98;100.00
15750;BME280;7976;52.526;13.326;2023-04-08T05:16:14;101808.31;;;7.00;100.00
15750;BME280;7976;52.526;13.326;2023-04-08T05:18:41;101804.81;;;7.01;100.00
15750;BME280;7976;52.526;13.326;2023-04-08T05:21:07;101803.94;;;7.02;100.00
15750;BME280;7976;52.526;13.326;2023-04-08T05:23:36;101810.91;;;7.01;100.00
15750;BME280;7976;52.526;13.326;2023-04-08T05:26:06;101819.53;;;7.02;100.00
15750;BME280;7976;52.526;13.326;2023-04-08T05:28:33;101822.16;;;7.02;100.00
15750;BME280;7976;52.526;13.326;2023-04-08T05:31:00;101818.69;;;7.03;100.00
15750;BME280;7976;52.526;13.326;2023-04-08T05:33:26;101816.09;;;7.04;100.00
15750;BME280;7976;52.526;13.326;2023-04-08T05:35:53;101813.47;;;7.06;100.00
15750;BME280;7976;52.526;13.326;2023-04-08T05:38:20;101817.78;;;7.05;100.00
15750;BME280;7976;52.526;13.326;2023-04-08T05:40:48;101818.66;;;7.07;100.00
15750;BME280;7976;52.526;13.326;2023-04-08T05:43:16;101825.59;;;7.10;100.00
15750;BME280;7976;52.526;13.326;2023-04-08T05:45:43;101833.41;;;7.11;100.00
15750;BME280;7976;52.526;13.326;2023-04-08T05:48:10;101835.97;;;7.14;100.00
15750;BME280;7976;52.526;13.326;2023-04-08T05:50:36;101844.63;;;7.18;100.00
15750;BME280;7976;52.526;13.326;2023-04-08T05:53:03;101846.31;;;7.23;100.00
15750;BME280;7976;52.526;13.326;2023-04-08T05:55:30;101855.03;;;7.21;100.00
15750;BME280;7976;52.526;13.326;2023-04-08T05:57:58;101855.91;;;7.21;100.00
15750;BME280;7976;52.526;13.326;2023-04-08T06:00:25;101852.41;;;7.22;100.00
15750;BME280;7976;52.526;13.326;2023-04-08T06:02:52;101846.34;;;7.25;100.00
15750;BME280;7976;52.526;13.326;2023-04-08T06:05:19;101850.63;;;7.29;100.00
15750;BME280;7976;52.526;13.326;2023-04-08T06:07:45;101858.41;;;7.33;99.96
15750;BME280;7976;52.526;13.326;2023-04-08T06:10:12;101851.47;;;7.32;99.88
15750;BME280;7976;52.526;13.326;2023-04-08T06:12:39;101850.63;;;7.30;99.48
15750;BME280;7976;52.526;13.326;2023-04-08T06:15:08;101852.34;;;7.28;99.37
15750;BME280;7976;52.526;13.326;2023-04-08T06:17:35;101856.75;;;7.26;99.45
15750;BME280;7976;52.526;13.326;2023-04-08T06:20:03;101856.72;;;7.29;99.66
15750;BME280;7976;52.526;13.326;2023-04-08T06:22:30;101857.59;;;7.30;99.42
15750;BME280;7976;52.526;13.326;2023-04-08T06:24:57;101861.03;;;7.29;99.50
15750;BME280;7976;52.526;13.326;2023-04-08T06:27:24;101865.34;;;7.34;99.62
15750;BME280;7976;52.526;13.326;2023-04-08T06:29:51;101861.84;;;7.41;99.57
15750;BME280;7976;52.526;13.326;2023-04-08T06:32:19;101866.13;;;7.48;99.73
15750;BME280;7976;52.526;13.326;2023-04-08T06:34:46;101872.16;;;7.53;99.78
15750;BME280;7976;52.526;13.326;2023-04-08T06:37:13;101873.03;;;7.55;99.54
15750;BME280;7976;52.526;13.326;2023-04-08T06:39:40;101869.53;;;7.59;99.26
15750;BME280;7976;52.526;13.326;2023-04-08T06:42:06;101877.31;;;7.62;99.10
15750;BME280;7976;52.526;13.326;2023-04-08T06:44:46;101882.50;;;7.65;99.03
15750;BME280;7976;52.526;13.326;2023-04-08T06:47:13;101892.91;;;7.68;98.94
15750;BME280;7976;52.526;13.326;2023-04-08T06:49:42;101901.59;;;7.69;98.97
15750;BME280;7976;52.526;13.326;2023-04-08T06:52:09;101892.03;;;7.70;98.61
15750;BME280;7976;52.526;13.326;2023-04-08T06:54:36;101900.72;;;7.68;98.65
15750;BME280;7976;52.526;13.326;2023-04-08T06:57:03;101910.28;;;7.71;98.20
15750;BME280;7976;52.526;13.326;2023-04-08T06:59:30;101912.84;;;7.76;98.25
15750;BME280;7976;52.526;13.326;2023-04-08T07:01:56;101911.03;;;7.82;98.19
15750;BME280;7976;52.526;13.326;2023-04-08T07:04:23;101914.47;;;7.87;97.90
15750;BME280;7976;52.526;13.326;2023-04-08T07:06:51;101918.81;;;7.90;97.85
15750;BME280;7976;52.526;13.326;2023-04-08T07:09:18;101920.53;;;7.95;97.71
15750;BME280;7976;52.526;13.326;2023-04-08T07:11:45;101919.63;;;7.96;97.31
15750;BME280;7976;52.526;13.326;2023-04-08T07:14:12;101913.53;;;7.97;96.79
15750;BME280;7976;52.526;13.326;2023-04-08T07:16:39;101917.88;;;8.00;96.67
15750;BME280;7976;52.526;13.326;2023-04-08T07:19:05;101918.72;;;8.03;96.59
15750;BME280;7976;52.526;13.326;2023-04-08T07:21:32;101916.06;;;8.08;96.19
15750;BME280;7976;52.526;13.326;2023-04-08T07:24:01;101925.66;;;8.09;95.68
15750;BME280;7976;52.526;13.326;2023-04-08T07:26:27;101928.19;;;8.13;95.39
15750;BME280;7976;52.526;13.326;2023-04-08T07:28:54;101929.00;;;8.21;95.53
15750;BME280;7976;52.526;13.326;2023-04-08T07:31:21;101934.19;;;8.26;95.42
15750;BME280;7976;52.526;13.326;2023-04-08T07:33:48;101932.41;;;8.32;95.39
15750;BME280;7976;52.526;13.326;2023-04-08T07:36:14;101932.38;;;8.38;95.24
15750;BME280;7976;52.526;13.326;2023-04-08T07:38:42;101934.88;;;8.49;95.24
15750;BME280;7976;52.526;13.326;2023-04-08T07:41:11;101938.16;;;8.67;95.62
15750;BME280;7976;52.526;13.326;2023-04-08T07:43:37;101943.25;;;8.81;95.22
15750;BME280;7976;52.526;13.326;2023-04-08T07:46:05;101944.06;;;8.86;94.78
15750;BME280;7976;52.526;13.326;2023-04-08T07:48:33;101945.81;;;8.87;94.52
15750;BME280;7976;52.526;13.326;2023-04-08T07:51:02;101951.00;;;8.88;93.95
15750;BME280;7976;52.526;13.326;2023-04-08T07:53:30;101955.34;;;8.88;93.66
15750;BME280;7976;52.526;13.326;2023-04-08T07:55:58;101960.56;;;8.88;93.46
15750;BME280;7976;52.526;13.326;2023-04-08T07:58:26;101953.66;;;8.82;93.38
15750;BME280;7976;52.526;13.326;2023-04-08T08:00:53;101963.38;;;8.70;93.11
15750;BME280;7976;52.526;13.326;2023-04-08T08:03:20;101959.97;;;8.62;93.29
15750;BME280;7976;52.526;13.326;2023-04-08T08:05:46;101962.66;;;8.53;93.58
15750;BME280;7976;52.526;13.326;2023-04-08T08:08:13;101959.19;;;8.54;93.83
15750;BME280;7976;52.526;13.326;2023-04-08T08:10:40;101962.59;;;8.57;93.69
15750;BME280;7976;52.526;13.326;2023-04-08T08:13:07;101959.91;;;8.66;93.86
15750;BME280;7976;52.526;13.326;2023-04-08T08:15:35;101954.63;;;8.72;93.33
15750;BME280;7976;52.526;13.326;2023-04-08T08:18:02;101961.53;;;8.78;93.56
15750;BME280;7976;52.526;13.326;2023-04-08T08:20:29;101964.09;;;8.85;93.67
15750;BME280;7976;52.526;13.326;2023-04-08T08:22:56;101956.22;;;8.88;93.29
15750;BME280;7976;52.526;13.326;2023-04-08T08:25:23;101957.09;;;8.89;93.29
15750;BME280;7976;52.526;13.326;2023-04-08T08:27:50;101967.47;;;8.95;93.55
15750;BME280;7976;52.526;13.326;2023-04-08T08:30:17;101972.56;;;9.06;93.35
15750;BME280;7976;52.526;13.326;2023-04-08T08:32:47;101971.59;;;9.16;93.27
15750;BME280;7976;52.526;13.326;2023-04-08T08:35:15;101965.34;;;9.27;93.18
15750;BME280;7976;52.526;13.326;2023-04-08T08:37:42;101968.72;;;9.35;92.48
15750;BME280;7976;52.526;13.326;2023-04-08T08:40:11;101973.84;;;9.43;92.11
15750;BME280;7976;52.526;13.326;2023-04-08T08:42:38;101985.97;;;9.48;91.69
15750;BME280;7976;52.526;13.326;2023-04-08T08:45:07;101983.22;;;9.60;91.15
15750;BME280;7976;52.526;13.326;2023-04-08T08:47:34;101982.25;;;9.67;89.80
15750;BME280;7976;52.526;13.326;2023-04-08T08:50:02;101980.50;;;9.66;88.53
15750;BME280;7976;52.526;13.326;2023-04-08T08:52:29;101978.69;;;9.71;88.59
15750;BME280;7976;52.526;13.326;2023-04-08T08:54:58;101980.44;;;9.72;87.73
15750;BME280;7976;52.526;13.326;2023-04-08T08:57:26;101973.53;;;9.67;87.19
15750;BME280;7976;52.526;13.326;2023-04-08T08:59:53;101981.41;;;9.65;86.92
15750;BME280;7976;52.526;13.326;2023-04-08T09:02:25;101990.06;;;9.70;87.34
15750;BME280;7976;52.526;13.326;2023-04-08T09:04:59;101995.97;;;9.84;87.03
15750;BME280;7976;52.526;13.326;2023-04-08T09:07:29;101996.56;;;10.01;86.15
15750;BME280;7976;52.526;13.326;2023-04-08T09:09:58;102004.41;;;10.04;85.25
15750;BME280;7976;52.526;13.326;2023-04-08T09:12:26;101999.97;;;10.11;85.05
15750;BME280;7976;52.526;13.326;2023-04-08T09:15:04;102003.38;;;10.16;85.11
15750;BME280;7976;52.526;13.326;2023-04-08T09:17:32;102012.06;;;10.17;84.73
15750;BME280;7976;52.526;13.326;2023-04-08T09:20:08;102017.34;;;10.13;84.25
15750;BME280;7976;52.526;13.326;2023-04-08T09:22:59;102013.88;;;10.11;84.15
15750;BME280;7976;52.526;13.326;2023-04-08T09:25:28;102018.25;;;10.13;84.07
15750;BME280;7976;52.526;13.326;2023-04-08T09:27:55;102026.13;;;10.11;83.80
15750;BME280;7976;52.526;13.326;2023-04-08T09:30:25;102023.53;;;10.09;83.83
15750;BME280;7976;52.526;13.326;2023-04-08T09:32:54;102025.13;;;10.20;84.09
15750;BME280;7976;52.526;13.326;2023-04-08T09:35:25;102031.19;;;10.20;83.73
15750;BME280;7976;52.526;13.326;2023-04-08T09:37:52;102020.66;;;10.26;83.70
15750;BME280;7976;52.526;13.326;2023-04-08T09:40:23;102028.38;;;10.34;83.89
15750;BME280;7976;52.526;13.326;2023-04-08T09:42:53;102029.13;;;10.42;83.82
15750;BME280;7976;52.526;13.326;2023-04-08T09:45:22;102026.38;;;10.51;83.63
15750;BME280;7976;52.526;13.326;2023-04-08T09:47:56;102038.47;;;10.58;83.46
15750;BME280;7976;52.526;13.326;2023-04-08T09:50:31;102038.56;;;10.52;82.52
15750;BME280;7976;52.526;13.326;2023-04-08T09:53:12;102033.50;;;10.43;82.58
15750;BME280;7976;52.526;13.326;2023-04-08T09:55:45;102033.53;;;10.40;82.89
15750;BME280;7976;52.526;13.326;2023-04-08T09:58:21;102044.00;;;10.40;83.20
15750;BME280;7976;52.526;13.326;2023-04-08T10:00:54;102032.72;;;10.36;82.71
15750;BME280;7976;52.526;13.326;2023-04-08T10:03:26;102030.16;;;10.33;82.78
15750;BME280;7976;52.526;13.326;2023-04-08T10:05:57;102036.19;;;10.35;82.50
15750;BME280;7976;52.526;13.326;2023-04-08T10:08:27;102036.19;;;10.35;82.36
15750;BME280;7976;52.526;13.326;2023-04-08T10:10:55;102034.50;;;10.34;82.71
15750;BME280;7976;52.526;13.326;2023-04-08T10:13:22;102035.38;;;10.32;82.19
15750;BME280;7976;52.526;13.326;2023-04-08T10:15:50;102038.84;;;10.34;81.96
15750;BME280;7976;52.526;13.326;2023-04-08T10:18:32;102047.72;;;10.24;81.75
15750;BME280;7976;52.526;13.326;2023-04-08T10:20:59;102044.31;;;10.19;82.18
15750;BME280;7976;52.526;13.326;2023-04-08T10:24:01;102040.72;;;10.26;82.66
15750;BME280;7976;52.526;13.326;2023-04-08T10:26:36;102046.66;;;10.38;82.88
15750;BME280;7976;52.526;13.326;2023-04-08T10:29:43;102040.13;;;10.62;82.27
15750;BME280;7976;52.526;13.326;2023-04-08T10:32:39;102044.13;;;10.84;81.23
15750;BME280;7976;52.526;13.326;2023-04-08T10:35:28;102045.59;;;11.01;79.65
15750;BME280;7976;52.526;13.326;2023-04-08T10:37:56;102041.94;;;11.10;78.83
15750;BME280;7976;52.526;13.326;2023-04-08T10:40:24;102038.28;;;11.17;77.83
15750;BME280;7976;52.526;13.326;2023-04-08T10:42:55;102036.34;;;11.28;77.78
15750;BME280;7976;52.526;13.326;2023-04-08T10:45:23;102041.22;;;11.46;78.07
15750;BME280;7976;52.526;13.326;2023-04-08T10:47:50;102026.13;;;11.57;77.83
15750;BME280;7976;52.526;13.326;2023-04-08T10:50:19;102026.00;;;11.66;76.99
15750;BME280;7976;52.526;13.326;2023-04-08T10:52:49;102027.56;;;11.75;75.77
15750;BME280;7976;52.526;13.326;2023-04-08T10:55:22;102033.59;;;11.78;74.64
15750;BME280;7976;52.526;13.326;2023-04-08T10:57:49;102034.38;;;11.83;73.48
15750;BME280;7976;52.526;13.326;2023-04-08T11:00:39;102028.16;;;11.89;73.28
15750;BME280;7976;52.526;13.326;2023-04-08T11:03:10;102027.91;;;11.98;73.63
15750;BME280;7976;52.526;13.326;2023-04-08T11:05:37;102035.03;;;11.93;72.84
15750;BME280;7976;52.526;13.326;2023-04-08T11:08:05;102028.22;;;11.84;72.78
15750;BME280;7976;52.526;13.326;2023-04-08T11:10:37;102035.13;;;11.88;73.63
15750;BME280;7976;52.526;13.326;2023-04-08T11:13:07;102029.94;;;11.87;73.73
15750;BME280;7976;52.526;13.326;2023-04-08T11:15:40;102036.00;;;11.87;73.02
15750;BME280;7976;52.526;13.326;2023-04-08T11:18:08;102036.00;;;11.89;72.74
15750;BME280;7976;52.526;13.326;2023-04-08T11:20:35;102036.69;;;11.97;71.87
15750;BME280;7976;52.526;13.326;2023-04-08T11:23:03;102024.31;;;12.03;71.37
15750;BME280;7976;52.526;13.326;2023-04-08T11:25:30;102030.19;;;12.13;71.24
15750;BME280;7976;52.526;13.326;2023-04-08T11:27:57;102030.00;;;12.22;71.32
15750;BME280;7976;52.526;13.326;2023-04-08T11:30:25;102030.69;;;12.30;71.06
15750;BME280;7976;52.526;13.326;2023-04-08T11:32:55;102036.72;;;12.33;70.42
15750;BME280;7976;52.526;13.326;2023-04-08T11:35:22;102040.31;;;12.29;69.94
15750;BME280;7976;52.526;13.326;2023-04-08T11:37:51;102038.69;;;12.25;70.38
15750;BME280;7976;52.526;13.326;2023-04-08T11:40:20;102038.69;;;12.25;70.66
15750;BME280;7976;52.526;13.326;2023-04-08T11:42:48;102040.59;;;12.19;70.38
15750;BME280;7976;52.526;13.326;2023-04-08T11:45:19;102039.88;;;12.11;70.47
15750;BME280;7976;52.526;13.326;2023-04-08T11:47:47;102036.31;;;12.13;70.94
15750;BME280;7976;52.526;13.326;2023-04-08T11:50:23;102034.66;;;12.09;70.90
15750;BME280;7976;52.526;13.326;2023-04-08T11:52:52;102038.03;;;12.14;70.75
15750;BME280;7976;52.526;13.326;2023-04-08T11:55:25;102028.13;;;12.27;70.66
15750;BME280;7976;52.526;13.326;2023-04-08T11:57:54;102022.56;;;12.40;69.32
15750;BME280;7976;52.526;13.326;2023-04-08T12:00:22;102028.56;;;12.45;68.39
15750;BME280;7976;52.526;13.326;2023-04-08T12:02:50;102031.25;;;12.44;68.32
15750;BME280;7976;52.526;13.326;2023-04-08T12:05:18;102037.31;;;12.44;68.46
15750;BME280;7976;52.526;13.326;2023-04-08T12:07:46;102034.00;;;12.38;68.02
15750;BME280;7976;52.526;13.326;2023-04-08T12:10:16;102030.47;;;12.39;68.48
15750;BME280;7976;52.526;13.326;2023-04-08T12:12:43;102039.13;;;12.42;68.66
15750;BME280;7976;52.526;13.326;2023-04-08T12:15:10;102032.13;;;12.43;68.79
15750;BME280;7976;52.526;13.326;2023-04-08T12:17:37;102034.69;;;12.44;69.25
15750;BME280;7976;52.526;13.326;2023-04-08T12:20:05;102032.06;;;12.44;69.17
15750;BME280;7976;52.526;13.326;2023-04-08T12:22:32;102028.75;;;12.38;68.89
15750;BME280;7976;52.526;13.326;2023-04-08T12:25:01;102025.34;;;12.33;68.95
15750;BME280;7976;52.526;13.326;2023-04-08T12:27:28;102026.22;;;12.33;69.04
15750;BME280;7976;52.526;13.326;2023-04-08T12:29:58;102036.50;;;12.42;68.88
15750;BME280;7976;52.526;13.326;2023-04-08T12:32:25;102029.03;;;12.61;68.05
15750;BME280;7976;52.526;13.326;2023-04-08T12:34:51;102031.22;;;12.79;66.48
15750;BME280;7976;52.526;13.326;2023-04-08T12:37:18;102028.31;;;12.90;65.79
15750;BME280;7976;52.526;13.326;2023-04-08T12:39:46;102029.88;;;12.97;65.54
15750;BME280;7976;52.526;13.326;2023-04-08T12:42:15;102026.34;;;12.99;64.84
15750;BME280;7976;52.526;13.326;2023-04-08T12:44:42;102026.22;;;13.04;63.58
15750;BME280;7976;52.526;13.326;2023-04-08T12:47:09;102024.53;;;13.03;63.40
15750;BME280;7976;52.526;13.326;2023-04-08T12:49:36;102019.28;;;13.00;63.36
15750;BME280;7976;52.526;13.326;2023-04-08T12:52:03;102022.09;;;12.94;63.09
15750;BME280;7976;52.526;13.326;2023-04-08T12:54:30;102026.72;;;12.83;63.55
15750;BME280;7976;52.526;13.326;2023-04-08T12:56:57;102017.88;;;12.87;63.64
15750;BME280;7976;52.526;13.326;2023-04-08T12:59:25;102015.13;;;12.93;63.95
15750;BME280;7976;52.526;13.326;2023-04-08T13:01:52;102013.91;;;13.06;63.53